CheckWX is a tool to help pilots better visualize weather data.  It is not intended as a substitute for an official pre-flight weather briefing.

14:14:47 UTC

KFME METAR
Tipton Airport
Fort Meade(Odenton), Maryland, USA
Current

33 mins ago

KFME 221342Z AUTO 33009G15KT 10SM SCT029 16/10 A3015 RMK AO1
Observed
Apr-22 @ 13:42 UTC
Wind
  • 330° at 9 KTS
  • Gusting to 15 KTS
Visibility
10 SM
Flight Rules
VFR
Cloud Levels
  • Scattered at 2,900' AGL
Temperature
16°C / 61°F
Dewpoint
10°C / 50°F
Humidity
68%
Altimeter
30.15" Hg
Pressure
1021.02 hPa
Previous

54 mins ago

KFME 221321Z AUTO 32009G14KT 10SM CLR 16/10 A3015 RMK AO1
Observed
Apr-22 @ 13:21 UTC
Wind
  • 320° at 9 KTS
  • Gusting to 14 KTS
Visibility
10 SM
Flight Rules
VFR
Cloud Levels
  • Clear skies
Temperature
16°C / 61°F
Dewpoint
10°C / 50°F
Humidity
68%
Altimeter
30.15" Hg
Pressure
1021.02 hPa
Previous

1 hour ago

KFME 221300Z AUTO 31007KT 10SM CLR 15/10 A3015 RMK AO1
Observed
Apr-22 @ 13:00 UTC
Wind
  • 310° at 7 KTS
Visibility
10 SM
Flight Rules
VFR
Cloud Levels
  • Clear skies
Temperature
15°C / 59°F
Dewpoint
10°C / 50°F
Humidity
72%
Altimeter
30.15" Hg
Pressure
1021.02 hPa